Time;durP1;ratioP1;P1;durP2;ratioP2;P2;SDS_P1;SDS_P2;PMS_P1;PMS_P2;Temp;Humidity;BMP_temperature;BMP_pressure;BME280_temperature;BME280_humidity;BME280_pressure;Samples;Min_cycle;Max_cycle;Signal;HPM_P1;HPM_P2
2020/12/03 00:01:08;;;;;;;94.87;49.10;;;;;;;-0.23;65.62;100483.72;124594;1095;104535;-73
2020/12/03 00:03:43;;;;;;;64.90;31.23;;;;;;;-0.20;65.50;100485.33;124590;1095;104519;-72
2020/12/03 00:06:18;;;;;;;78.20;38.40;;;;;;;-0.23;65.65;100490.75;124554;1095;104609;-72
2020/12/03 00:08:51;;;;;;;203.70;133.67;;;;;;;-0.24;66.23;100500.37;124502;1095;104608;-73
2020/12/03 00:11:19;;;;;;;173.93;91.83;;;;;;;-0.24;66.15;100505.61;124507;1095;104609;-74
2020/12/03 00:13:48;;;;;;;166.80;83.70;;;;;;;-0.23;65.65;100511.73;124489;1095;104596;-72
2020/12/03 00:16:16;;;;;;;148.07;77.50;;;;;;;-0.26;66.28;100510.09;124626;1095;104626;-73
2020/12/03 00:18:45;;;;;;;165.83;85.50;;;;;;;-0.26;66.09;100502.22;124563;1095;104628;-71
2020/12/03 00:21:14;;;;;;;91.43;45.23;;;;;;;-0.26;65.75;100507.47;124585;1095;104596;-73
2020/12/03 00:23:43;;;;;;;155.30;94.40;;;;;;;-0.28;65.31;100488.34;124639;1095;104574;-73
2020/12/03 00:26:11;;;;;;;125.10;67.30;;;;;;;-0.26;66.10;100486.48;124600;1095;104616;-71
2020/12/03 00:28:41;;;;;;;97.90;54.35;;;;;;;-0.26;66.25;100480.41;124498;1096;104695;-72
2020/12/03 00:31:10;;;;;;;80.80;46.40;;;;;;;-0.28;66.52;100471.77;124655;1095;104581;-74
2020/12/03 00:33:38;;;;;;;98.83;52.90;;;;;;;-0.28;66.33;100469.14;124602;1095;104606;-72
2020/12/03 00:36:06;;;;;;;105.40;56.25;;;;;;;-0.29;66.08;100470.93;124616;1095;104583;-75
2020/12/03 00:38:35;;;;;;;65.73;35.07;;;;;;;-0.31;65.92;100467.55;124630;1095;104609;-73
2020/12/03 00:41:03;;;;;;;76.73;41.47;;;;;;;-0.36;65.85;100463.45;124596;1095;104611;-73
2020/12/03 00:43:31;;;;;;;69.77;36.20;;;;;;;-0.46;65.72;100456.05;124491;1095;105192;-73
2020/12/03 00:46:00;;;;;;;60.17;30.73;;;;;;;-0.54;66.42;100450.36;124637;1095;104563;-73
2020/12/03 00:48:28;;;;;;;39.03;20.93;;;;;;;-0.58;65.72;100454.03;124580;1095;104593;-73
2020/12/03 00:50:57;;;;;;;38.07;19.23;;;;;;;-0.62;66.41;100455.11;124604;1095;104595;-72
2020/12/03 00:53:26;;;;;;;59.30;29.27;;;;;;;-0.68;66.25;100460.67;124646;1095;104552;-73
2020/12/03 00:55:55;;;;;;;40.83;20.37;;;;;;;-0.74;65.59;100448.72;124660;1095;104525;-73
2020/12/03 00:58:23;;;;;;;68.00;32.30;;;;;;;-0.77;66.14;100442.78;124622;1095;104596;-74
2020/12/03 01:00:52;;;;;;;71.63;32.40;;;;;;;-0.80;66.52;100449.02;124614;1095;104487;-73
2020/12/03 01:03:20;;;;;;;83.53;38.70;;;;;;;-0.81;66.61;100442.95;124589;1095;104535;-73
2020/12/03 01:05:48;;;;;;;58.20;27.87;;;;;;;-0.87;66.33;100453.70;124649;1095;104718;-71
2020/12/03 01:08:16;;;;;;;93.70;37.85;;;;;;;-0.90;65.75;100461.73;124617;1095;104538;-72
2020/12/03 01:10:45;;;;;;;82.87;38.87;;;;;;;-0.90;66.37;100459.11;124468;1096;104560;-74
2020/12/03 01:13:13;;;;;;;85.00;40.50;;;;;;;-0.92;66.00;100460.95;124476;1095;104599;-72
2020/12/03 01:15:42;;;;;;;133.07;55.90;;;;;;;-0.90;66.23;100463.52;124600;1095;104561;-72
2020/12/03 01:18:10;;;;;;;84.53;43.57;;;;;;;-0.94;66.80;100444.47;124645;1095;104567;-73
2020/12/03 01:20:38;;;;;;;69.03;34.43;;;;;;;-0.96;66.03;100442.83;124604;1095;104760;-72
2020/12/03 01:23:06;;;;;;;72.00;36.03;;;;;;;-0.98;66.31;100445.55;124597;1095;104599;-72
2020/12/03 01:25:35;;;;;;;76.37;39.17;;;;;;;-1.00;66.55;100445.61;124295;1097;105009;-73
2020/12/03 01:28:04;;;;;;;82.30;52.27;;;;;;;-1.00;66.29;100437.76;124600;1095;104567;-71
2020/12/03 01:30:32;;;;;;;48.10;25.30;;;;;;;-1.01;67.13;100425.57;124524;1095;104544;-71
2020/12/03 01:33:00;;;;;;;69.17;37.67;;;;;;;-1.02;66.77;100423.89;124488;1095;104574;-71
2020/12/03 01:35:29;;;;;;;60.95;32.65;;;;;;;-1.05;66.48;100404.86;124615;1095;104634;-72
2020/12/03 01:37:57;;;;;;;47.97;24.47;;;;;;;-1.09;65.81;100398.08;124591;1095;104600;-71
2020/12/03 01:40:27;;;;;;;1133.47;658.87;;;;;;;-1.12;66.52;100408.69;124576;1095;104513;-72
2020/12/03 01:42:55;;;;;;;1063.20;563.03;;;;;;;-1.13;66.16;100409.63;124606;1095;104596;-74
2020/12/03 01:45:53;;;;;;;1013.00;639.87;;;;;;;-1.15;66.49;100421.95;124667;1095;104596;-71
2020/12/03 01:48:35;;;;;;;1315.90;776.40;;;;;;;-1.15;65.91;100424.57;124613;1096;104513;-73
2020/12/03 01:51:07;;;;;;;805.50;534.33;;;;;;;-1.13;66.48;100417.48;124603;1096;104506;-71
2020/12/03 01:53:36;;;;;;;472.70;232.77;;;;;;;-1.13;66.68;100409.63;124670;1095;104494;-72
2020/12/03 01:56:19;;;;;;;412.40;234.27;;;;;;;-1.11;66.35;100397.31;124629;1095;104571;-73
2020/12/03 01:58:49;;;;;;;304.63;162.53;;;;;;;-1.09;66.10;100396.30;124633;1095;104517;-71
2020/12/03 02:01:17;;;;;;;361.60;227.27;;;;;;;-1.07;67.14;100383.14;124617;1095;104593;-74
2020/12/03 02:03:48;;;;;;;169.20;93.07;;;;;;;-1.05;66.98;100370.81;124530;1095;104568;-72
2020/12/03 02:06:22;;;;;;;119.47;67.37;;;;;;;-1.06;66.92;100363.87;124575;1095;104529;-73
2020/12/03 02:08:50;;;;;;;86.85;50.75;;;;;;;-1.04;67.12;100365.51;124689;1095;104491;-75
2020/12/03 02:11:20;;;;;;;60.20;34.23;;;;;;;-1.05;66.69;100363.80;124579;1095;104529;-74
2020/12/03 02:13:54;;;;;;;116.47;86.20;;;;;;;-1.03;66.43;100367.19;124595;1095;104951;-73
2020/12/03 02:16:24;;;;;;;60.13;35.80;;;;;;;-1.04;67.12;100362.89;124641;1096;105031;-75
2020/12/03 02:18:52;;;;;;;66.03;40.23;;;;;;;-1.00;66.33;100361.80;124667;1095;104609;-75
2020/12/03 02:21:21;;;;;;;51.70;34.90;;;;;;;-0.98;66.95;100356.50;124599;1095;104512;-73
2020/12/03 02:23:49;;;;;;;38.00;22.67;;;;;;;-0.94;66.19;100342.31;124654;1095;104580;-73
2020/12/03 02:26:18;;;;;;;54.20;38.13;;;;;;;-0.94;66.66;100336.21;124652;1095;104955;-73
2020/12/03 02:28:47;;;;;;;38.03;23.83;;;;;;;-0.99;66.20;100339.08;124630;1095;104625;-72
2020/12/03 02:31:16;;;;;;;36.27;21.53;;;;;;;-1.06;66.67;100329.82;124566;1096;104519;-74
2020/12/03 02:33:44;;;;;;;35.00;22.20;;;;;;;-1.10;66.91;100315.20;124648;1095;104654;-72
2020/12/03 02:36:15;;;;;;;38.87;26.13;;;;;;;-1.14;66.89;100308.42;124617;1097;104574;-75
2020/12/03 02:38:44;;;;;;;37.20;25.80;;;;;;;-1.20;67.43;100299.10;124620;1095;104957;-74
2020/12/03 02:41:12;;;;;;;32.10;20.03;;;;;;;-1.23;67.25;100294.87;124601;1095;104510;-73
2020/12/03 02:43:40;;;;;;;31.00;21.65;;;;;;;-1.27;67.05;100301.19;124610;1095;104515;-73
2020/12/03 02:46:08;;;;;;;28.55;16.95;;;;;;;-1.29;67.51;100284.72;124632;1095;104679;-75
2020/12/03 02:48:37;;;;;;;24.05;14.75;;;;;;;-1.31;66.49;100277.84;124612;1095;104625;-72
2020/12/03 02:51:05;;;;;;;24.67;14.90;;;;;;;-1.36;67.30;100266.78;124614;1095;104551;-74
2020/12/03 02:53:33;;;;;;;21.40;12.90;;;;;;;-1.36;67.26;100264.16;124591;1095;104524;-72
2020/12/03 02:56:01;;;;;;;32.50;19.87;;;;;;;-1.36;67.62;100277.25;124650;1095;104753;-73
2020/12/03 02:58:30;;;;;;;26.17;17.37;;;;;;;-1.39;67.32;100272.99;124520;1095;104596;-72
2020/12/03 03:00:58;;;;;;;42.53;30.93;;;;;;;-1.42;67.07;100274.00;124593;1095;104605;-72
2020/12/03 03:03:26;;;;;;;38.53;22.47;;;;;;;-1.47;67.07;100273.38;124603;1095;104520;-73
2020/12/03 03:05:55;;;;;;;34.17;20.47;;;;;;;-1.50;67.32;100257.84;124641;1095;104605;-73
2020/12/03 03:08:23;;;;;;;27.80;15.53;;;;;;;-1.51;67.62;100257.91;124444;1095;104600;-72
2020/12/03 03:10:51;;;;;;;24.80;14.80;;;;;;;-1.53;67.51;100254.53;124605;1095;104490;-72
2020/12/03 03:13:20;;;;;;;24.60;13.93;;;;;;;-1.54;67.31;100260.67;124625;1095;104532;-73
2020/12/03 03:15:48;;;;;;;26.27;15.50;;;;;;;-1.57;67.65;100264.30;124620;1095;104625;-72
2020/12/03 03:18:16;;;;;;;19.03;12.53;;;;;;;-1.56;67.00;100263.35;124644;1095;104661;-72
2020/12/03 03:20:45;;;;;;;27.83;16.87;;;;;;;-1.57;66.67;100264.30;124606;1095;104544;-73
2020/12/03 03:23:14;;;;;;;25.50;13.57;;;;;;;-1.57;67.51;100260.84;124596;1095;104519;-73
2020/12/03 03:25:42;;;;;;;21.00;12.90;;;;;;;-1.56;67.00;100254.66;124622;1096;104605;-73
2020/12/03 03:28:10;;;;;;;25.33;14.30;;;;;;;-1.58;68.02;100252.12;124569;1096;104666;-74
2020/12/03 03:30:39;;;;;;;25.40;13.57;;;;;;;-1.57;67.83;100259.06;124601;1095;105013;-74
2020/12/03 03:33:07;;;;;;;24.67;13.67;;;;;;;-1.55;68.19;100259.83;124576;1095;104602;-73
2020/12/03 03:35:35;;;;;;;24.47;13.77;;;;;;;-1.50;67.52;100257.84;124656;1095;104602;-73
2020/12/03 03:38:04;;;;;;;24.20;13.87;;;;;;;-1.45;67.19;100266.29;124586;1096;104987;-72
2020/12/03 03:40:32;;;;;;;22.70;13.00;;;;;;;-1.37;67.57;100254.59;124583;1095;104606;-71
2020/12/03 03:43:01;;;;;;;18.50;10.97;;;;;;;-1.30;67.61;100259.45;124542;1095;104646;-71
2020/12/03 03:45:29;;;;;;;22.67;13.20;;;;;;;-1.23;67.61;100260.84;124641;1095;104737;-71
2020/12/03 03:47:59;;;;;;;30.47;16.93;;;;;;;-1.20;67.55;100258.05;124479;1095;104609;-72
2020/12/03 03:50:27;;;;;;;24.80;13.63;;;;;;;-1.17;67.22;100256.20;124574;1095;104535;-71
2020/12/03 03:52:55;;;;;;;29.23;15.47;;;;;;;-1.14;67.63;100253.44;124213;1097;104663;-70
2020/12/03 03:55:24;;;;;;;27.13;14.00;;;;;;;-1.09;67.94;100254.89;124590;1095;104564;-71
2020/12/03 03:57:52;;;;;;;27.25;14.40;;;;;;;-1.03;67.71;100253.73;124500;1095;104572;-71
2020/12/03 04:00:21;;;;;;;27.63;14.90;;;;;;;-0.99;67.16;100258.72;124625;1095;104631;-71
2020/12/03 04:02:50;;;;;;;22.60;14.15;;;;;;;-0.97;67.52;100268.28;124534;1095;104528;-72
2020/12/03 04:05:18;;;;;;;23.60;14.10;;;;;;;-1.00;67.15;100257.05;124573;1095;104657;-73
2020/12/03 04:07:47;;;;;;;22.97;12.83;;;;;;;-0.96;67.03;100249.88;124499;1095;104756;-72
2020/12/03 04:10:17;;;;;;;39.17;21.17;;;;;;;-0.93;67.59;100233.98;124472;1095;104497;-73
2020/12/03 04:12:45;;;;;;;93.30;40.87;;;;;;;-0.93;67.49;100228.75;124504;1096;104641;-73
2020/12/03 04:15:14;;;;;;;317.03;156.63;;;;;;;-0.92;66.99;100235.69;124694;1096;104577;-72
2020/12/03 04:17:42;;;;;;;615.80;307.23;;;;;;;-0.90;67.33;100233.84;124934;1096;104549;-72
2020/12/03 04:20:16;;;;;;;336.33;146.40;;;;;;;-0.87;67.32;100231.04;124539;1096;104519;-72
2020/12/03 04:22:44;;;;;;;430.67;222.93;;;;;;;-0.89;67.84;100245.99;124658;1096;104562;-73
2020/12/03 04:25:14;;;;;;;222.97;106.77;;;;;;;-0.88;67.96;100242.46;124576;1095;104642;-71
2020/12/03 04:27:42;;;;;;;264.45;134.20;;;;;;;-0.88;67.61;100249.48;124446;1095;104597;-72
2020/12/03 04:30:12;;;;;;;217.30;120.20;;;;;;;-0.88;67.59;100242.46;124450;1095;104596;-72
2020/12/03 04:32:41;;;;;;;156.30;84.00;;;;;;;-0.85;67.12;100242.31;124545;1095;104535;-72
2020/12/03 04:35:10;;;;;;;153.20;94.30;;;;;;;-0.83;67.93;100245.70;124537;1095;104605;-73
2020/12/03 04:37:39;;;;;;;85.80;48.57;;;;;;;-0.83;67.64;100237.84;124528;1097;104609;-72
2020/12/03 04:40:09;;;;;;;106.23;55.73;;;;;;;-0.84;67.69;100220.41;124477;1095;105893;-71
2020/12/03 04:42:38;;;;;;;125.65;73.70;;;;;;;-0.85;67.53;100221.36;124513;1095;104535;-68
2020/12/03 04:45:20;;;;;;;138.63;77.43;;;;;;;-0.85;67.23;100221.36;124550;1095;104628;-73
2020/12/03 04:48:02;;;;;;;85.87;48.53;;;;;;;-0.85;67.17;100226.59;124514;1095;104723;-73
2020/12/03 04:50:42;;;;;;;48.93;26.03;;;;;;;-0.87;67.33;100223.18;124496;1095;104631;-73
2020/12/03 04:53:13;;;;;;;53.67;32.33;;;;;;;-0.90;68.52;100223.36;124481;1095;104596;-73
2020/12/03 04:56:02;;;;;;;44.47;26.57;;;;;;;-0.90;67.80;100225.14;124293;1096;104602;-76
2020/12/03 04:58:44;;;;;;;44.03;23.60;;;;;;;-0.94;67.46;100213.98;124546;1095;104619;-73
2020/12/03 05:01:32;;;;;;;46.80;25.80;;;;;;;-0.98;67.76;100217.69;124590;1095;104532;-71
2020/12/03 05:04:09;;;;;;;51.80;28.65;;;;;;;-1.00;67.94;100211.69;124875;1090;104634;-76
2020/12/03 05:07:03;;;;;;;72.17;37.33;;;;;;;-1.03;68.06;100211.83;124617;1095;104673;-72
2020/12/03 05:09:40;;;;;;;78.57;37.33;;;;;;;-1.03;68.37;100203.98;124635;1095;104591;-73
2020/12/03 05:12:16;;;;;;;67.80;38.37;;;;;;;-1.04;68.38;100207.51;124610;1095;104509;-72
2020/12/03 05:14:51;;;;;;;63.57;32.63;;;;;;;-1.04;67.61;100200.52;124496;1095;105735;-75
2020/12/03 05:17:43;;;;;;;65.25;34.75;;;;;;;-1.05;67.80;100195.36;124653;1095;104650;-75
2020/12/03 05:20:42;;;;;;;53.85;29.02;;;;;;;-1.05;67.41;100187.50;124660;1095;104522;-72
2020/12/03 05:23:15;;;;;;;678.10;296.97;;;;;;;-1.09;68.13;100173.72;124627;1095;104917;-71
2020/12/03 05:25:45;;;;;;;403.17;138.63;;;;;;;-1.07;67.58;100173.64;124617;1097;104534;-74
2020/12/03 05:28:31;;;;;;;315.60;141.60;;;;;;;-1.10;67.93;100163.32;124648;1096;104622;-80
2020/12/03 05:31:19;;;;;;;171.60;77.13;;;;;;;-1.13;68.53;100160.88;124629;1095;104555;-73
2020/12/03 05:33:47;;;;;;;220.77;115.13;;;;;;;-1.14;68.28;100154.77;124697;1095;104513;-75
2020/12/03 05:36:24;;;;;;;277.53;159.97;;;;;;;-1.13;67.50;100159.10;124617;1095;104993;-74
2020/12/03 05:38:53;;;;;;;120.90;62.55;;;;;;;-1.14;67.87;100160.02;124700;1095;104634;-75
2020/12/03 05:41:23;;;;;;;96.50;50.63;;;;;;;-1.15;68.73;100155.72;124620;1095;104535;-75
2020/12/03 05:43:52;;;;;;;119.73;59.20;;;;;;;-1.19;68.10;100165.50;124692;1096;104510;-73
2020/12/03 05:46:23;;;;;;;132.43;73.63;;;;;;;-1.19;68.27;100157.65;124616;1096;104512;-74
2020/12/03 05:49:00;;;;;;;82.03;38.33;;;;;;;-1.22;67.88;100152.56;124661;1095;104596;-75
2020/12/03 05:51:32;;;;;;;58.43;30.40;;;;;;;-1.27;67.93;100144.12;124606;1096;104605;-74
2020/12/03 05:54:04;;;;;;;75.77;40.13;;;;;;;-1.28;68.48;100145.03;124711;1095;104621;-74
2020/12/03 05:56:32;;;;;;;226.13;90.00;;;;;;;-1.31;68.12;100139.11;124656;1090;104507;-73
2020/12/03 05:59:25;;;;;;;533.63;299.73;;;;;;;-1.31;67.90;100137.36;124662;1095;104993;-75
2020/12/03 06:02:14;;;;;;;1061.80;550.23;;;;;;;-1.32;68.41;100135.66;124539;1095;104606;-73
2020/12/03 06:04:50;;;;;;;711.73;365.10;;;;;;;-1.30;68.42;100135.59;124638;1095;104519;-73
2020/12/03 06:07:51;;;;;;;519.67;231.40;;;;;;;-1.28;68.85;100131.11;124617;1095;104510;-74
2020/12/03 06:10:41;;;;;;;342.13;138.37;;;;;;;-1.34;68.45;100127.05;124607;1095;104615;-73
2020/12/03 06:13:22;;;;;;;745.13;442.57;;;;;;;-1.36;68.81;100126.28;124643;1096;104625;-74
2020/12/03 06:15:52;;;;;;;;;;;;;;;-1.35;68.59;100122.72;124642;1095;104506;-73
2020/12/03 06:18:50;;;;;;;185.10;77.87;;;;;;;-1.37;68.23;100114.10;124542;1095;104595;-73
2020/12/03 06:21:42;;;;;;;179.00;81.87;;;;;;;-1.35;69.03;100114.87;124665;1095;104701;-74
2020/12/03 06:24:41;;;;;;;320.73;173.93;;;;;;;-1.34;68.90;100116.57;124674;1089;104520;-73
2020/12/03 06:27:43;;;;;;;261.77;150.27;;;;;;;-1.32;68.02;100117.33;124425;1095;104603;-75
2020/12/03 06:30:21;;;;;;;236.83;128.60;;;;;;;-1.33;67.63;100115.63;124623;1096;104567;-74
2020/12/03 06:33:17;;;;;;;269.00;156.75;;;;;;;-1.36;67.69;100130.67;124728;1095;104737;-74
2020/12/03 06:35:50;;;;;;;198.00;106.83;;;;;;;-1.34;67.96;100127.05;124666;1095;104598;-75
2020/12/03 06:38:25;;;;;;;137.80;71.20;;;;;;;-1.28;68.61;100137.19;124622;1090;104598;-75
2020/12/03 06:41:14;;;;;;;205.80;107.70;;;;;;;-1.28;67.78;100131.11;124605;1095;104967;-75
2020/12/03 06:43:51;;;;;;;113.73;51.67;;;;;;;-1.28;68.39;100128.49;124607;1095;104605;-76
2020/12/03 06:46:45;;;;;;;257.30;128.50;;;;;;;-1.28;68.88;100129.33;124759;1095;104569;-73
2020/12/03 06:49:51;;;;;;;171.37;82.73;;;;;;;-1.28;68.97;100136.34;124718;1095;104531;-74
2020/12/03 06:52:51;;;;;;;137.00;71.93;;;;;;;-1.30;69.00;100136.42;124632;1095;104513;-72
2020/12/03 06:55:53;;;;;;;223.13;89.17;;;;;;;-1.24;68.50;100140.49;124639;1095;105184;-73
2020/12/03 06:58:46;;;;;;;125.40;64.00;;;;;;;-1.22;68.13;100136.86;124603;1095;104586;-74
2020/12/03 07:01:38;;;;;;;98.50;47.90;;;;;;;-1.20;68.31;100137.62;124618;1095;104631;-73
2020/12/03 07:04:38;;;;;;;94.47;51.37;;;;;;;-1.17;68.15;100135.77;124567;1095;104590;-73
2020/12/03 07:07:53;;;;;;;78.77;45.13;;;;;;;-1.16;67.84;100138.30;124605;1095;104615;-74
2020/12/03 07:10:54;;;;;;;75.77;44.60;;;;;;;-1.12;68.51;100136.38;124572;1095;104563;-76
2020/12/03 07:14:25;;;;;;;71.50;46.10;;;;;;;-1.07;68.71;100131.75;124613;1095;104893;-75
2020/12/03 07:17:28;;;;;;;64.03;40.77;;;;;;;-1.03;68.28;100117.56;124609;1095;104503;-73
2020/12/03 07:20:40;;;;;;;133.23;91.60;;;;;;;-1.04;67.77;100121.95;124644;1095;104646;-73
2020/12/03 07:23:13;;;;;;;98.23;61.50;;;;;;;-1.04;68.25;100116.72;124625;1095;104636;-75
2020/12/03 07:25:44;;;;;;;67.07;39.17;;;;;;;-1.04;68.29;100111.48;124606;1095;104605;-73
2020/12/03 07:28:23;;;;;;;47.40;26.65;;;;;;;-0.98;68.06;100089.36;124616;1095;104509;-73
2020/12/03 07:30:55;;;;;;;71.37;45.10;;;;;;;-0.90;67.89;100092.39;124630;1095;104583;-73
2020/12/03 07:33:50;;;;;;;83.07;52.60;;;;;;;-0.87;68.25;100092.20;124645;1095;104540;-74
2020/12/03 07:36:35;;;;;;;61.10;34.93;;;;;;;-0.89;68.74;100094.06;124460;1095;104599;-74
2020/12/03 07:39:08;;;;;;;50.93;29.93;;;;;;;-0.87;67.75;100093.99;124598;1095;104593;-74
2020/12/03 07:41:51;;;;;;;129.33;81.90;;;;;;;-0.86;68.21;100090.45;124645;1095;104618;-74
2020/12/03 07:44:29;;;;;;;86.63;55.50;;;;;;;-0.82;68.29;100084.95;124692;1095;104596;-73
2020/12/03 07:47:16;;;;;;;84.07;57.60;;;;;;;-0.77;67.97;100084.72;124622;1095;104957;-75
2020/12/03 07:49:47;;;;;;;68.83;41.97;;;;;;;-0.80;68.52;100077.84;124660;1095;104673;-75
2020/12/03 07:52:30;;;;;;;55.67;36.30;;;;;;;-0.80;68.54;100075.23;124612;1096;104660;-75
2020/12/03 07:55:29;;;;;;;46.37;28.60;;;;;;;-0.83;67.53;100083.28;124659;1095;104638;-73
2020/12/03 07:57:59;;;;;;;37.90;21.50;;;;;;;-0.83;68.27;100075.42;124548;1095;104538;-75
2020/12/03 08:00:49;;;;;;;40.07;24.43;;;;;;;-0.80;67.81;100071.77;124644;1095;104584;-75
2020/12/03 08:03:47;;;;;;;42.30;22.80;;;;;;;-0.83;68.21;100075.42;124691;1096;104580;-77
2020/12/03 08:06:19;;;;;;;48.00;29.65;;;;;;;-0.87;67.80;100071.25;124596;1095;104595;-73
2020/12/03 08:08:50;;;;;;;52.70;31.90;;;;;;;-0.86;68.67;100083.44;124614;1095;104966;-73
2020/12/03 08:11:46;;;;;;;58.67;33.30;;;;;;;-0.86;67.95;100086.05;124631;1095;104493;-73
2020/12/03 08:14:43;;;;;;;53.33;31.33;;;;;;;-0.81;68.20;100097.14;124459;1096;104663;-75
2020/12/03 08:17:50;;;;;;;54.13;29.60;;;;;;;-0.78;68.66;100098.73;124675;1095;104564;-74
2020/12/03 08:20:42;;;;;;;43.07;23.73;;;;;;;-0.75;68.27;100105.56;124592;1095;104599;-73
2020/12/03 08:23:13;;;;;;;70.27;40.37;;;;;;;-0.69;68.26;100102.63;124591;1095;104597;-71
2020/12/03 08:25:47;;;;;;;44.70;25.83;;;;;;;-0.68;68.50;100092.04;124664;1095;104672;-74
2020/12/03 08:28:25;;;;;;;43.20;25.30;;;;;;;-0.69;68.23;100094.77;124621;1095;104631;-72
2020/12/03 08:30:52;;;;;;;42.03;21.37;;;;;;;-0.69;67.37;100094.77;124592;1096;104608;-73
2020/12/03 08:33:27;;;;;;;35.20;20.00;;;;;;;-0.71;68.24;100081.75;124624;1095;104516;-74
2020/12/03 08:35:58;;;;;;;39.67;22.60;;;;;;;-0.68;68.24;100085.96;124703;1095;104753;-72
2020/12/03 08:38:30;;;;;;;39.90;20.75;;;;;;;-0.68;67.58;100085.96;124631;1095;104596;-73
2020/12/03 08:41:02;;;;;;;40.12;21.02;;;;;;;-0.69;67.78;100084.29;124660;1095;104538;-71
2020/12/03 08:43:32;;;;;;;39.23;20.53;;;;;;;-0.67;68.02;100082.42;124599;1095;104563;-72
2020/12/03 08:46:05;;;;;;;43.33;23.23;;;;;;;-0.66;67.37;100073.63;124670;1095;104701;-73
2020/12/03 08:48:37;;;;;;;37.97;20.73;;;;;;;-0.62;68.25;100080.38;124605;1095;104547;-71
2020/12/03 08:51:08;;;;;;;43.38;21.10;;;;;;;-0.65;67.79;100083.19;124639;1095;104599;-72
2020/12/03 08:53:38;;;;;;;39.55;21.60;;;;;;;-0.62;68.16;100082.99;124631;1095;104482;-72
2020/12/03 08:56:21;;;;;;;41.95;21.25;;;;;;;-0.62;67.58;100070.76;124657;1095;104650;-71
2020/12/03 08:58:59;;;;;;;32.43;18.17;;;;;;;-0.60;67.27;100068.89;124625;1095;104945;-72
2020/12/03 09:01:33;;;;;;;31.23;18.17;;;;;;;-0.60;67.21;100065.41;124625;1095;104595;-74
2020/12/03 09:04:04;;;;;;;34.03;17.63;;;;;;;-0.58;67.78;100060.92;124624;1095;104644;-72
2020/12/03 09:06:36;;;;;;;37.23;21.43;;;;;;;-0.58;67.70;100068.78;124689;1095;104599;-74
2020/12/03 09:09:05;;;;;;;56.70;30.30;;;;;;;-0.59;67.55;100072.34;124588;1095;104583;-73
2020/12/03 09:11:35;;;;;;;46.87;25.57;;;;;;;-0.60;67.94;100074.14;124338;1097;104663;-72
2020/12/03 09:14:06;;;;;;;100.97;55.97;;;;;;;-0.56;67.83;100080.02;124641;1095;104517;-71
2020/12/03 09:16:36;;;;;;;81.40;38.30;;;;;;;-0.49;67.28;100070.05;124727;1095;104995;-74
2020/12/03 09:19:04;;;;;;;88.57;45.83;;;;;;;-0.43;67.27;100081.02;124652;1095;104541;-72
2020/12/03 09:21:33;;;;;;;60.60;32.63;;;;;;;-0.40;67.72;100070.38;124593;1095;104970;-73
2020/12/03 09:24:04;;;;;;;51.50;27.63;;;;;;;-0.40;67.63;100062.50;124634;1095;104528;-74
2020/12/03 09:26:35;;;;;;;54.53;28.97;;;;;;;-0.37;67.65;100058.02;124681;1095;104696;-73
2020/12/03 09:29:04;;;;;;;54.50;28.90;;;;;;;-0.37;67.58;100053.61;124621;1095;104589;-73
2020/12/03 09:31:35;;;;;;;150.40;88.15;;;;;;;-0.32;67.52;100045.50;124696;1095;104640;-73
2020/12/03 09:34:07;;;;;;;1377.03;585.92;;;;;;;-0.28;67.75;100042.59;124611;1095;104596;-73
2020/12/03 09:36:38;;;;;;;1999.90;943.00;;;;;;;-0.28;67.71;100018.16;124664;1096;104516;-76
2020/12/03 09:39:07;;;;;;;1999.90;940.55;;;;;;;-0.29;67.37;100024.33;124658;1095;104596;-75
2020/12/03 09:41:36;;;;;;;1999.90;862.27;;;;;;;-0.32;67.30;100022.74;124638;1095;104507;-73
2020/12/03 09:44:08;;;;;;;1999.90;989.67;;;;;;;-0.31;67.81;100031.44;124591;1095;104574;-74
2020/12/03 09:46:39;;;;;;;1693.33;732.23;;;;;;;-0.31;67.28;100031.44;124688;1095;104583;-73
2020/12/03 09:49:15;;;;;;;1260.50;578.53;;;;;;;-0.28;67.33;100039.14;124640;1096;104600;-73
2020/12/03 09:51:45;;;;;;;745.67;303.53;;;;;;;-0.22;67.06;100025.66;124598;1095;104576;-73
2020/12/03 09:54:13;;;;;;;1174.77;667.50;;;;;;;-0.12;67.39;100012.86;124620;1096;104490;-74
2020/12/03 09:56:42;;;;;;;811.60;442.63;;;;;;;-0.06;67.40;100005.48;124614;1095;104645;-74
2020/12/03 09:59:12;;;;;;;530.87;269.00;;;;;;;0.02;67.04;99996.29;124631;1095;104563;-75
2020/12/03 10:02:03;;;;;;;259.35;118.80;;;;;;;0.07;67.03;100007.36;124569;1095;104487;-73
2020/12/03 10:04:55;;;;;;;219.70;128.83;;;;;;;0.04;67.18;100010.16;124572;1095;104682;-75
2020/12/03 10:07:44;;;;;;;259.45;142.65;;;;;;;0.06;66.90;100008.28;124688;1095;104901;-75
2020/12/03 10:10:30;;;;;;;287.13;152.60;;;;;;;0.07;67.18;100008.20;124654;1095;104599;-73
2020/12/03 10:13:16;;;;;;;280.17;142.40;;;;;;;0.09;67.11;100005.48;124598;1096;104596;-73
2020/12/03 10:16:02;;;;;;;232.10;114.40;;;;;;;0.14;67.10;99999.03;124593;1095;104596;-73
2020/12/03 10:18:43;;;;;;;211.85;104.85;;;;;;;0.22;67.26;99987.23;124645;1096;104727;-74
2020/12/03 10:21:16;;;;;;;104.55;50.10;;;;;;;0.30;66.69;99980.56;124671;1095;104494;-73
2020/12/03 10:23:50;;;;;;;258.57;156.53;;;;;;;0.28;66.75;99974.56;124376;1095;104631;-73
2020/12/03 10:26:33;;;;;;;144.37;77.47;;;;;;;0.24;66.54;99965.20;124586;1095;104596;-74
2020/12/03 10:29:16;;;;;;;86.00;43.83;;;;;;;0.31;67.10;99960.40;124655;1096;104602;-76
2020/12/03 10:31:47;;;;;;;207.30;115.23;;;;;;;0.43;66.69;99961.45;124648;1096;104699;-74
2020/12/03 10:34:16;;;;;;;194.55;144.60;;;;;;;0.58;66.66;99955.23;124628;1095;104599;-73
2020/12/03 10:36:54;;;;;;;88.20;53.40;;;;;;;0.69;67.06;99951.91;124638;1095;104622;-75
2020/12/03 10:39:27;;;;;;;52.20;31.63;;;;;;;0.75;66.08;99949.75;124768;1090;104653;-73
2020/12/03 10:41:57;;;;;;;40.17;23.63;;;;;;;0.78;66.69;99946.91;124624;1095;104580;-75
2020/12/03 10:44:28;;;;;;;38.60;23.93;;;;;;;0.88;66.50;99948.95;124575;1095;104596;-73
2020/12/03 10:47:02;;;;;;;39.75;24.50;;;;;;;0.92;66.23;99947.81;124621;1095;104515;-73
2020/12/03 10:49:34;;;;;;;38.60;24.70;;;;;;;0.97;66.73;99943.11;124647;1095;104682;-75
2020/12/03 10:52:04;;;;;;;35.80;21.50;;;;;;;0.97;66.40;99943.11;124662;1095;104526;-73
2020/12/03 10:54:34;;;;;;;36.63;20.77;;;;;;;0.96;66.29;99942.28;124624;1095;104627;-75
2020/12/03 10:57:16;;;;;;;37.17;22.57;;;;;;;0.96;66.52;99942.28;124572;1095;104580;-73
2020/12/03 10:59:44;;;;;;;37.03;22.47;;;;;;;0.98;66.70;99947.41;124651;1095;104542;-71
2020/12/03 11:02:26;;;;;;;36.70;21.40;;;;;;;1.00;66.21;99942.06;124606;1095;104598;-73
2020/12/03 11:04:55;;;;;;;38.15;23.57;;;;;;;1.07;66.67;99944.19;124632;1095;104564;-75
2020/12/03 11:07:24;;;;;;;38.53;21.13;;;;;;;1.13;66.80;99949.03;124661;1095;104492;-73
2020/12/03 11:09:54;;;;;;;33.40;20.60;;;;;;;1.25;66.13;99943.92;124640;1095;104637;-73
2020/12/03 11:12:26;;;;;;;36.47;21.70;;;;;;;1.35;66.29;99939.77;124626;1095;104641;-74
2020/12/03 11:14:54;;;;;;;;;;;;;;;1.44;66.31;99931.23;124635;1095;105066;-73
2020/12/03 11:17:46;;;;;;;46.63;28.90;;;;;;;1.52;66.16;99930.72;124622;1095;104510;-74
2020/12/03 11:20:20;;;;;;;42.83;26.30;;;;;;;1.61;65.56;99931.91;124668;1095;104660;-73
2020/12/03 11:23:02;;;;;;;35.17;21.00;;;;;;;1.61;65.93;99926.64;124600;1095;104618;-73
2020/12/03 11:25:31;;;;;;;42.75;27.30;;;;;;;1.55;65.81;99920.84;124609;1095;104561;-75
2020/12/03 11:28:05;;;;;;;36.57;21.23;;;;;;;1.61;66.35;99916.13;124637;1095;104487;-73